createdAt,value
2023-03-30T00:01:15.384Z,51261.34
2023-03-30T00:03:44.248Z,51289.19
2023-03-30T00:06:14.898Z,51287.19
2023-03-30T00:08:41.974Z,51281.22
2023-03-30T00:11:17.104Z,51283.22
2023-03-30T00:13:45.005Z,51263.34
2023-03-30T00:16:14.476Z,51291.16
2023-03-30T00:18:41.891Z,51293.16
2023-03-30T00:21:11.207Z,51251.41
2023-03-30T00:23:40.058Z,51273.28
2023-03-30T00:26:07.798Z,51261.34
2023-03-30T00:28:35.118Z,51253.41
2023-03-30T00:31:02.915Z,51297.13
2023-03-30T00:33:44.641Z,51271.28
2023-03-30T00:36:13.878Z,51277.25
2023-03-30T00:38:41.101Z,51269.31
2023-03-30T00:41:09.360Z,51277.25
2023-03-30T00:44:02.331Z,51267.31
2023-03-30T00:46:31.735Z,51277.25
2023-03-30T00:49:05.246Z,51289.19
2023-03-30T00:51:38.465Z,51265.31
2023-03-30T00:54:16.698Z,51291.16
2023-03-30T00:56:44.096Z,51277.25
2023-03-30T00:59:11.500Z,51275.25
2023-03-30T01:01:41.415Z,51283.22
2023-03-30T01:04:11.216Z,51291.16
2023-03-30T01:06:40.901Z,51293.16
2023-03-30T01:09:08.575Z,51289.19
2023-03-30T01:11:35.788Z,51295.16
2023-03-30T01:14:10.862Z,51297.13
2023-03-30T01:17:01.554Z,51265.31
2023-03-30T01:19:53.059Z,51295.16
2023-03-30T01:23:04.333Z,51287.19
2023-03-30T01:26:06.983Z,51255.38
2023-03-30T01:28:50.729Z,51297.13
2023-03-30T01:31:48.900Z,51285.19
2023-03-30T01:35:20.831Z,51281.22
2023-03-30T01:38:37.342Z,51287.19
2023-03-30T01:41:25.919Z,51275.25
2023-03-30T01:44:09.046Z,51255.38
2023-03-30T01:46:55.564Z,51281.22
2023-03-30T01:49:38.004Z,51287.19
2023-03-30T01:52:38.606Z,51277.25
2023-03-30T01:55:20.641Z,51303.09
2023-03-30T01:57:58.850Z,51263.34
2023-03-30T02:00:27.688Z,51289.19
2023-03-30T02:03:06.739Z,51283.22
2023-03-30T02:05:36.184Z,51293.16
2023-03-30T02:08:16.379Z,51283.22
2023-03-30T02:10:45.889Z,51259.34
2023-03-30T02:13:14.323Z,51265.31
2023-03-30T02:15:50.092Z,51247.44
2023-03-30T02:18:19.976Z,51297.13
2023-03-30T02:20:49.462Z,51269.31
2023-03-30T02:23:20.996Z,51273.28
2023-03-30T02:25:48.455Z,51267.31
2023-03-30T02:28:18.500Z,51267.31
2023-03-30T02:30:47.310Z,51281.22
2023-03-30T02:33:50.867Z,51279.25
2023-03-30T02:36:38.691Z,51297.13
2023-03-30T02:39:50.595Z,51265.31
2023-03-30T02:42:55.424Z,51285.19
2023-03-30T02:46:02.567Z,51293.16
2023-03-30T02:48:58.696Z,51287.19
2023-03-30T02:51:29.913Z,51289.19
2023-03-30T02:54:43.886Z,51281.22
2023-03-30T02:57:55.009Z,51287.19
2023-03-30T03:01:14.718Z,51273.28
2023-03-30T03:03:54.029Z,51305.09
2023-03-30T03:06:23.930Z,51273.28
2023-03-30T03:08:56.258Z,51283.22
2023-03-30T03:11:27.219Z,51265.31
2023-03-30T03:13:55.716Z,51293.16
2023-03-30T03:16:24.146Z,51259.34
2023-03-30T03:19:08.916Z,51269.31
2023-03-30T03:21:37.065Z,51283.22
2023-03-30T03:24:06.578Z,51277.25
2023-03-30T03:26:53.086Z,51283.22
2023-03-30T03:29:23.115Z,51287.19
2023-03-30T03:31:50.355Z,51283.22
2023-03-30T03:34:20.522Z,51261.34
2023-03-30T03:36:57.300Z,51269.31
2023-03-30T03:39:27.166Z,51259.34
2023-03-30T03:42:01.591Z,51269.31
2023-03-30T03:44:28.760Z,51295.16
2023-03-30T03:46:56.283Z,51313.03
2023-03-30T03:49:24.058Z,51261.34
2023-03-30T03:51:51.121Z,51275.25
2023-03-30T03:54:18.369Z,51297.13
2023-03-30T03:56:48.195Z,51275.25
2023-03-30T03:59:15.633Z,51326.94
2023-03-30T04:01:42.789Z,51273.28
2023-03-30T04:04:09.922Z,51289.19
2023-03-30T04:06:37.434Z,51283.22
2023-03-30T04:09:04.651Z,51269.31
2023-03-30T04:12:07.030Z,51289.19
2023-03-30T04:14:52.711Z,51279.25
2023-03-30T04:17:50.050Z,51295.16
2023-03-30T04:20:30.314Z,51281.22
2023-03-30T04:23:09.923Z,51241.47
2023-03-30T04:25:55.695Z,51297.13
2023-03-30T04:28:43.412Z,51301.09
2023-03-30T04:31:35.958Z,51275.25
2023-03-30T04:34:35.310Z,51279.25
2023-03-30T04:37:30.371Z,51253.41
2023-03-30T04:40:16.398Z,51291.16
2023-03-30T04:42:52.840Z,51249.41
2023-03-30T04:45:58.343Z,51275.25
2023-03-30T04:48:44.179Z,51281.22
2023-03-30T04:51:40.952Z,51241.47
2023-03-30T04:54:29.235Z,51263.34
2023-03-30T04:57:17.581Z,51283.22
2023-03-30T04:59:58.277Z,51263.34
2023-03-30T05:02:54.412Z,51255.38
2023-03-30T05:05:51.316Z,51291.16
2023-03-30T05:08:47.657Z,51263.34
2023-03-30T05:11:47.142Z,51289.19
2023-03-30T05:14:23.164Z,51265.31
2023-03-30T05:17:01.945Z,51287.19
2023-03-30T05:19:38.235Z,51289.19
2023-03-30T05:22:24.343Z,51289.19
2023-03-30T05:25:00.514Z,51281.22
2023-03-30T05:28:00.125Z,51273.28
2023-03-30T05:30:41.761Z,51281.22
2023-03-30T05:33:11.706Z,51279.25
2023-03-30T05:35:59.220Z,51279.25
2023-03-30T05:38:57.360Z,51283.22
2023-03-30T05:41:49.407Z,51289.19
2023-03-30T05:44:26.769Z,51279.25
2023-03-30T05:47:27.872Z,51293.16
2023-03-30T05:50:09.359Z,51267.31
2023-03-30T05:52:47.987Z,51299.13
2023-03-30T05:55:18.151Z,51301.09
2023-03-30T05:58:04.116Z,51289.19
2023-03-30T06:00:49.799Z,51299.13
2023-03-30T06:03:29.532Z,51299.13
2023-03-30T06:05:57.061Z,51287.19
2023-03-30T06:08:24.406Z,51279.25
2023-03-30T06:10:57.540Z,51293.16
2023-03-30T06:13:27.949Z,51299.13
2023-03-30T06:15:56.165Z,51299.13
2023-03-30T06:18:26.572Z,51305.09
2023-03-30T06:21:07.783Z,51315.03
2023-03-30T06:23:49.261Z,51303.09
2023-03-30T06:26:21.648Z,51269.31
2023-03-30T06:28:49.392Z,51303.09
2023-03-30T06:31:16.643Z,51317.00
2023-03-30T06:33:45.144Z,51305.09
2023-03-30T06:36:14.676Z,51305.09
2023-03-30T06:38:44.715Z,51307.06
2023-03-30T06:41:12.902Z,51301.09
2023-03-30T06:43:43.411Z,51326.94
2023-03-30T06:46:15.634Z,51281.22
2023-03-30T06:48:48.489Z,51301.09
2023-03-30T06:51:38.006Z,51326.94
2023-03-30T06:54:07.064Z,51321.00
2023-03-30T06:56:34.726Z,51313.03
2023-03-30T06:59:08.972Z,51321.00
2023-03-30T07:01:56.385Z,51293.16
2023-03-30T07:04:38.117Z,51295.16
2023-03-30T07:07:19.908Z,51330.94
2023-03-30T07:09:47.861Z,51305.09
2023-03-30T07:12:15.075Z,51299.13
2023-03-30T07:14:42.809Z,51313.03
2023-03-30T07:17:10.261Z,51326.94
2023-03-30T07:19:37.613Z,51315.03
2023-03-30T07:22:04.975Z,51322.97
2023-03-30T07:24:33.763Z,51350.81
2023-03-30T07:27:01.564Z,51336.91
2023-03-30T07:29:29.398Z,51356.78
2023-03-30T07:31:57.262Z,51346.84
2023-03-30T07:34:24.826Z,51372.69
2023-03-30T07:36:55.454Z,51372.69
2023-03-30T07:39:26.779Z,51350.81
2023-03-30T07:41:54.214Z,51382.63
2023-03-30T07:44:22.859Z,51358.75
2023-03-30T07:46:50.186Z,51326.94
2023-03-30T07:49:23.304Z,51352.78
2023-03-30T07:51:51.891Z,51332.91
2023-03-30T07:54:26.413Z,51338.88
2023-03-30T07:57:06.780Z,51366.72
2023-03-30T07:59:34.584Z,51364.72
2023-03-30T08:02:14.977Z,51352.78
2023-03-30T08:04:54.114Z,51402.50
2023-03-30T08:07:32.415Z,51378.66
2023-03-30T08:10:09.341Z,51384.59
2023-03-30T08:12:37.823Z,51396.53
2023-03-30T08:15:05.844Z,51408.47
2023-03-30T08:17:33.479Z,51408.47
2023-03-30T08:20:02.066Z,51394.53
2023-03-30T08:22:29.430Z,51350.81
2023-03-30T08:24:57.178Z,51382.63
2023-03-30T08:27:24.550Z,51386.59
2023-03-30T08:29:54.452Z,51376.66
2023-03-30T08:32:24.608Z,51410.44
2023-03-30T08:34:53.966Z,51454.19
2023-03-30T08:37:21.460Z,51408.47
2023-03-30T08:39:48.896Z,51414.44
2023-03-30T08:42:43.687Z,51422.38
2023-03-30T08:45:12.970Z,51416.41
2023-03-30T08:47:46.139Z,51384.59
2023-03-30T08:50:36.130Z,51362.75
2023-03-30T08:53:08.331Z,51376.66
2023-03-30T08:55:44.900Z,51400.50
2023-03-30T08:58:48.438Z,51398.53
2023-03-30T09:01:58.924Z,51368.69
2023-03-30T09:05:13.452Z,51372.69
2023-03-30T09:08:22.870Z,51372.69
2023-03-30T09:11:02.535Z,51362.75
2023-03-30T09:13:35.081Z,51356.78
2023-03-30T09:16:30.034Z,51392.56
2023-03-30T09:18:59.392Z,51352.78
2023-03-30T09:21:31.542Z,51338.88
2023-03-30T09:24:01.484Z,51326.94
2023-03-30T09:26:44.080Z,51378.66
2023-03-30T09:29:14.000Z,51384.59
2023-03-30T09:31:52.337Z,51346.84
2023-03-30T09:34:39.193Z,51372.69
2023-03-30T09:37:22.468Z,51378.66
2023-03-30T09:39:50.855Z,51376.66
2023-03-30T09:42:48.310Z,51350.81
2023-03-30T09:45:23.274Z,51356.78
2023-03-30T09:47:50.866Z,51352.78
2023-03-30T09:50:27.703Z,51370.69
2023-03-30T09:53:07.561Z,51344.84
2023-03-30T09:55:36.720Z,51348.81
2023-03-30T09:58:34.618Z,51362.75
2023-03-30T10:01:18.484Z,51360.75
2023-03-30T10:04:06.780Z,51346.84
2023-03-30T10:06:40.083Z,51344.84
2023-03-30T10:09:12.682Z,51364.72
2023-03-30T10:11:54.108Z,51364.72
2023-03-30T10:14:36.785Z,51334.91
2023-03-30T10:17:05.492Z,51356.78
2023-03-30T10:19:38.392Z,51366.72
2023-03-30T10:22:17.877Z,51332.91
2023-03-30T10:24:57.088Z,51340.88
2023-03-30T10:27:34.334Z,51340.88
2023-03-30T10:30:11.465Z,51344.84
2023-03-30T10:32:38.642Z,51322.97
2023-03-30T10:35:10.573Z,51344.84
2023-03-30T10:37:46.461Z,51328.94
2023-03-30T10:40:22.114Z,51338.88
2023-03-30T10:42:55.997Z,51352.78
2023-03-30T10:45:35.092Z,51372.69
2023-03-30T10:48:31.255Z,51346.84
2023-03-30T10:51:11.197Z,51321.00
2023-03-30T10:53:58.530Z,51344.84
2023-03-30T10:56:52.262Z,51354.78
2023-03-30T10:59:54.832Z,51354.78
2023-03-30T11:03:02.327Z,51350.81
2023-03-30T11:05:33.584Z,51364.72
2023-03-30T11:08:29.818Z,51356.78
2023-03-30T11:10:59.686Z,51404.50
2023-03-30T11:13:32.592Z,51364.72
2023-03-30T11:16:31.460Z,51384.59
2023-03-30T11:19:24.628Z,51376.66
2023-03-30T11:22:40.033Z,51378.66
2023-03-30T11:25:22.448Z,51336.91
2023-03-30T11:28:23.369Z,51372.69
2023-03-30T11:30:55.412Z,51376.66
2023-03-30T11:33:37.100Z,51366.72
2023-03-30T11:36:18.849Z,51356.78
2023-03-30T11:39:18.444Z,51406.47
2023-03-30T11:42:17.898Z,51400.50
2023-03-30T11:44:45.131Z,51406.47
2023-03-30T11:47:50.470Z,51384.59
2023-03-30T11:51:08.141Z,51396.53
2023-03-30T11:53:41.167Z,51428.34
2023-03-30T11:56:19.300Z,51440.28
2023-03-30T11:59:09.502Z,51470.09
2023-03-30T12:01:57.771Z,51529.75
2023-03-30T12:04:43.555Z,51515.81
2023-03-30T12:07:53.645Z,51531.72
2023-03-30T12:10:28.590Z,51575.47
2023-03-30T12:12:56.495Z,51593.38
2023-03-30T12:15:49.116Z,51505.88
2023-03-30T12:18:41.188Z,51454.19
2023-03-30T12:21:11.063Z,51452.19
2023-03-30T12:24:04.866Z,51488.00
2023-03-30T12:26:34.370Z,51523.78
2023-03-30T12:29:44.386Z,51495.94
2023-03-30T12:32:02.966Z,51503.91
2023-03-30T12:34:37.682Z,51523.78
2023-03-30T12:37:35.708Z,51484.00
2023-03-30T12:40:20.797Z,51507.88
2023-03-30T12:43:08.752Z,51507.88
2023-03-30T12:45:49.873Z,51523.78
2023-03-30T12:48:50.468Z,51549.63
2023-03-30T12:51:32.608Z,51539.69
2023-03-30T12:54:26.740Z,51460.16
2023-03-30T12:57:00.306Z,51466.13
2023-03-30T13:00:11.899Z,51440.28
2023-03-30T13:03:36.789Z,51450.22
2023-03-30T13:06:12.157Z,51491.97
2023-03-30T13:08:42.107Z,51525.75
2023-03-30T13:11:22.111Z,51511.84
2023-03-30T13:14:01.871Z,51549.63
2023-03-30T13:16:51.278Z,51511.84
2023-03-30T13:19:33.564Z,51511.84
2023-03-30T13:22:13.480Z,51551.63
2023-03-30T13:25:03.982Z,51501.91
2023-03-30T13:27:37.798Z,51509.84
2023-03-30T13:30:15.530Z,51458.16
2023-03-30T13:33:23.702Z,51452.19
2023-03-30T13:36:09.747Z,51444.25
2023-03-30T13:38:56.419Z,51444.25
2023-03-30T13:41:44.763Z,51460.16
2023-03-30T13:44:46.966Z,51460.16
2023-03-30T13:47:57.451Z,51452.19
2023-03-30T13:50:31.499Z,51442.25
2023-03-30T13:53:04.418Z,51466.13
2023-03-30T13:55:34.745Z,51450.22
2023-03-30T13:58:12.005Z,51480.03
2023-03-30T14:00:48.661Z,51497.94
2023-03-30T14:03:46.412Z,51674.88
2023-03-30T14:06:14.636Z,51533.72
2023-03-30T14:09:05.556Z,51523.78
2023-03-30T14:11:48.216Z,51595.34
2023-03-30T14:14:29.884Z,51730.56
2023-03-30T14:16:59.537Z,51718.63
2023-03-30T14:19:35.474Z,51698.75
2023-03-30T14:22:11.433Z,51563.53
2023-03-30T14:24:38.704Z,51595.34
2023-03-30T14:27:14.567Z,51647.03
2023-03-30T14:29:51.368Z,51680.84
2023-03-30T14:32:23.361Z,51649.03
2023-03-30T14:34:52.859Z,51537.69
2023-03-30T14:37:23.118Z,51533.72
2023-03-30T14:39:57.471Z,51529.75
2023-03-30T14:42:27.596Z,51549.63
2023-03-30T14:44:57.309Z,51571.50
2023-03-30T14:47:27.332Z,51605.28
2023-03-30T14:49:58.185Z,51621.19
2023-03-30T14:52:38.715Z,51607.28
2023-03-30T14:55:11.485Z,51641.09
2023-03-30T14:57:41.847Z,51527.75
2023-03-30T15:00:17.845Z,51597.34
2023-03-30T15:02:46.677Z,51507.88
2023-03-30T15:05:21.512Z,51476.06
2023-03-30T15:07:50.551Z,51470.09
2023-03-30T15:10:25.033Z,51464.13
2023-03-30T15:12:56.057Z,51488.00
2023-03-30T15:15:30.374Z,51436.28
2023-03-30T15:17:58.332Z,51426.34
2023-03-30T15:20:29.277Z,51382.63
2023-03-30T15:22:56.794Z,51384.59
2023-03-30T15:25:37.029Z,51372.69
2023-03-30T15:28:07.390Z,51382.63
2023-03-30T15:30:41.205Z,51374.66
2023-03-30T15:33:32.320Z,51452.19
2023-03-30T15:36:07.928Z,51480.03
2023-03-30T15:38:52.869Z,51444.25
2023-03-30T15:41:42.796Z,51452.19
2023-03-30T15:44:20.868Z,51416.41
2023-03-30T15:46:51.300Z,51420.41
2023-03-30T15:49:22.565Z,51394.53
2023-03-30T15:51:56.773Z,51372.69
2023-03-30T15:54:40.121Z,51364.72
2023-03-30T15:57:11.237Z,51360.75
2023-03-30T15:59:44.793Z,51348.81
2023-03-30T16:02:22.745Z,51362.75
2023-03-30T16:04:51.701Z,51374.66
2023-03-30T16:07:24.943Z,51350.81
2023-03-30T16:09:52.726Z,51348.81
2023-03-30T16:12:25.248Z,51342.84
2023-03-30T16:14:53.709Z,51338.88
2023-03-30T16:17:21.261Z,51342.84
2023-03-30T16:19:48.542Z,51364.72
2023-03-30T16:22:16.615Z,51356.78
2023-03-30T16:24:44.151Z,51358.75
2023-03-30T16:27:12.522Z,51358.75
2023-03-30T16:29:39.626Z,51354.78
2023-03-30T16:32:06.918Z,51380.63
2023-03-30T16:34:34.186Z,51356.78
2023-03-30T16:37:02.048Z,51352.78
2023-03-30T16:39:30.590Z,51352.78
2023-03-30T16:41:57.820Z,51330.94
2023-03-30T16:44:25.508Z,51342.84
2023-03-30T16:46:53.116Z,51332.91
2023-03-30T16:49:24.510Z,51322.97
2023-03-30T16:51:54.554Z,51340.88
2023-03-30T16:54:31.059Z,51350.81
2023-03-30T16:57:01.066Z,51352.78
2023-03-30T16:59:32.671Z,51328.94
2023-03-30T17:02:00.492Z,51354.78
2023-03-30T17:04:27.954Z,51362.75
2023-03-30T17:06:56.285Z,51364.72
2023-03-30T17:09:23.492Z,51364.72
2023-03-30T17:11:51.050Z,51360.75
2023-03-30T17:14:18.399Z,51360.75
2023-03-30T17:16:45.601Z,51348.81
2023-03-30T17:19:14.428Z,51350.81
2023-03-30T17:21:43.820Z,51321.00
2023-03-30T17:24:12.656Z,51368.69
2023-03-30T17:26:40.373Z,51336.91
2023-03-30T17:29:07.551Z,51352.78
2023-03-30T17:31:34.810Z,51352.78
2023-03-30T17:34:01.949Z,51352.78
2023-03-30T17:36:29.277Z,51346.84
2023-03-30T17:38:56.759Z,51334.91
2023-03-30T17:41:24.112Z,51340.88
2023-03-30T17:43:51.670Z,51342.84
2023-03-30T17:46:20.330Z,51342.84
2023-03-30T17:48:48.288Z,51340.88
2023-03-30T17:51:15.465Z,51328.94
2023-03-30T17:53:42.878Z,51322.97
2023-03-30T17:56:13.398Z,51328.94
2023-03-30T17:58:40.517Z,51348.81
2023-03-30T18:01:12.442Z,51346.84
2023-03-30T18:03:40.197Z,51342.84
2023-03-30T18:06:08.066Z,51332.91
2023-03-30T18:08:36.263Z,51326.94
2023-03-30T18:11:05.076Z,51328.94
2023-03-30T18:13:32.766Z,51332.91
2023-03-30T18:16:01.144Z,51344.84
2023-03-30T18:18:31.937Z,51324.97
2023-03-30T18:21:05.409Z,51334.91
2023-03-30T18:23:34.539Z,51326.94
2023-03-30T18:26:08.390Z,51328.94
2023-03-30T18:28:40.532Z,51336.91
2023-03-30T18:31:10.794Z,51324.97
2023-03-30T18:33:39.367Z,51336.91
2023-03-30T18:36:13.097Z,51328.94
2023-03-30T18:38:40.944Z,51332.91
2023-03-30T18:41:12.470Z,51332.91
2023-03-30T18:43:39.581Z,51321.00
2023-03-30T18:46:07.021Z,51321.00
2023-03-30T18:48:34.509Z,51321.00
2023-03-30T18:51:01.757Z,51324.97
2023-03-30T18:53:29.272Z,51324.97
2023-03-30T18:56:00.690Z,51299.13
2023-03-30T18:58:33.833Z,51317.00
2023-03-30T19:01:01.539Z,51326.94
2023-03-30T19:03:30.219Z,51313.03
2023-03-30T19:05:57.456Z,51326.94
2023-03-30T19:08:26.579Z,51340.88
2023-03-30T19:10:56.881Z,51313.03
2023-03-30T19:13:26.202Z,51334.91
2023-03-30T19:15:53.691Z,51326.94
2023-03-30T19:18:21.452Z,51322.97
2023-03-30T19:20:51.274Z,51328.94
2023-03-30T19:23:23.064Z,51321.00
2023-03-30T19:25:50.843Z,51317.00
2023-03-30T19:28:19.125Z,51321.00
2023-03-30T19:30:46.723Z,51319.00
2023-03-30T19:33:16.870Z,51332.91
2023-03-30T19:35:46.334Z,51344.84
2023-03-30T19:38:14.829Z,51317.00
2023-03-30T19:40:42.707Z,51328.94
2023-03-30T19:43:10.540Z,51338.88
2023-03-30T19:45:38.313Z,51309.06
2023-03-30T19:48:05.595Z,51346.84
2023-03-30T19:50:32.828Z,51317.00
2023-03-30T19:52:59.978Z,51356.78
2023-03-30T19:55:27.638Z,51330.94
2023-03-30T19:57:54.921Z,51334.91
2023-03-30T20:00:22.122Z,51324.97
2023-03-30T20:02:52.963Z,51307.06
2023-03-30T20:05:22.862Z,51313.03
2023-03-30T20:07:50.547Z,51311.06
2023-03-30T20:10:25.053Z,51321.00
2023-03-30T20:12:53.582Z,51326.94
2023-03-30T20:15:23.470Z,51336.91
2023-03-30T20:17:58.629Z,51344.84
2023-03-30T20:20:26.300Z,51322.97
2023-03-30T20:22:56.517Z,51352.78
2023-03-30T20:25:24.790Z,51313.03
2023-03-30T20:27:52.975Z,51322.97
2023-03-30T20:30:21.183Z,51332.91
2023-03-30T20:33:00.199Z,51321.00
2023-03-30T20:35:37.884Z,51326.94
2023-03-30T20:38:06.281Z,51324.97
2023-03-30T20:40:34.786Z,51301.09
2023-03-30T20:43:10.069Z,51324.97
2023-03-30T20:45:46.408Z,51315.03
2023-03-30T20:48:27.032Z,51317.00
2023-03-30T20:50:55.938Z,51342.84
2023-03-30T20:53:23.722Z,51307.06
2023-03-30T20:55:51.137Z,51332.91
2023-03-30T20:58:18.228Z,51328.94
2023-03-30T21:00:47.447Z,51289.19
2023-03-30T21:03:15.564Z,51295.16
2023-03-30T21:05:42.694Z,51336.91
2023-03-30T21:08:09.811Z,51328.94
2023-03-30T21:10:40.688Z,51289.19
2023-03-30T21:13:07.744Z,51336.91
2023-03-30T21:15:35.140Z,51317.00
2023-03-30T21:18:02.453Z,51336.91
2023-03-30T21:20:31.017Z,51332.91
2023-03-30T21:22:58.186Z,51313.03
2023-03-30T21:25:25.284Z,51303.09
2023-03-30T21:27:52.427Z,51313.03
2023-03-30T21:30:19.688Z,51311.06
2023-03-30T21:32:46.768Z,51326.94
2023-03-30T21:35:13.899Z,51321.00
2023-03-30T21:37:41.031Z,51311.06
2023-03-30T21:40:08.808Z,51307.06
2023-03-30T21:42:35.978Z,51328.94
2023-03-30T21:45:03.246Z,51313.03
2023-03-30T21:47:30.496Z,51322.97
2023-03-30T21:49:57.562Z,51326.94
2023-03-30T21:52:24.782Z,51324.97
2023-03-30T21:54:52.125Z,51319.00
2023-03-30T21:57:19.306Z,51322.97
2023-03-30T21:59:46.538Z,51319.00
2023-03-30T22:02:13.640Z,51324.97
2023-03-30T22:04:44.135Z,51317.00
2023-03-30T22:07:11.624Z,51344.84
2023-03-30T22:09:38.944Z,51321.00
2023-03-30T22:12:06.713Z,51321.00
2023-03-30T22:14:34.288Z,51346.84
2023-03-30T22:17:01.382Z,51328.94
2023-03-30T22:19:31.981Z,51328.94
2023-03-30T22:21:59.112Z,51326.94
2023-03-30T22:24:26.241Z,51299.13
2023-03-30T22:26:53.303Z,51313.03
2023-03-30T22:29:20.955Z,51326.94
2023-03-30T22:31:48.129Z,51336.91
2023-03-30T22:34:15.476Z,51326.94
2023-03-30T22:36:43.468Z,51328.94
2023-03-30T22:39:10.641Z,51322.97
2023-03-30T22:41:38.229Z,51319.00
2023-03-30T22:44:05.421Z,51324.97
2023-03-30T22:46:32.582Z,51324.97
2023-03-30T22:49:00.246Z,51321.00
2023-03-30T22:51:27.477Z,51334.91
2023-03-30T22:54:00.188Z,51326.94
2023-03-30T22:56:29.498Z,51352.78
2023-03-30T22:58:57.414Z,51336.91
2023-03-30T23:01:24.664Z,51301.09
2023-03-30T23:03:53.623Z,51336.91
2023-03-30T23:06:21.496Z,51321.00
2023-03-30T23:08:49.170Z,51305.09
2023-03-30T23:11:16.702Z,51321.00
2023-03-30T23:13:43.979Z,51315.03
2023-03-30T23:16:11.226Z,51305.09
2023-03-30T23:18:39.087Z,51342.84
2023-03-30T23:21:08.176Z,51338.88
2023-03-30T23:23:39.147Z,51324.97
2023-03-30T23:26:10.175Z,51338.88
2023-03-30T23:28:40.405Z,51328.94
2023-03-30T23:31:17.572Z,51334.91
2023-03-30T23:33:45.768Z,51340.88
2023-03-30T23:36:13.936Z,51338.88
2023-03-30T23:38:41.769Z,51328.94
2023-03-30T23:41:09.865Z,51326.94
2023-03-30T23:43:37.010Z,51330.94
2023-03-30T23:46:04.849Z,51321.00
2023-03-30T23:48:32.784Z,51354.78
2023-03-30T23:50:59.828Z,51348.81
2023-03-30T23:53:27.085Z,51326.94
2023-03-30T23:55:54.875Z,51328.94
2023-03-30T23:58:22.537Z,51322.97
